createdAt,value
2022-08-10T00:02:08.134Z,0.60
2022-08-10T00:04:39.988Z,0.30
2022-08-10T00:07:11.838Z,0.27
2022-08-10T00:09:50.887Z,0.40
2022-08-10T00:12:17.141Z,0.53
2022-08-10T00:14:49.066Z,0.40
2022-08-10T00:17:20.935Z,0.30
2022-08-10T00:20:03.339Z,0.40
2022-08-10T00:22:27.377Z,0.40
2022-08-10T00:24:59.281Z,0.33
2022-08-10T00:27:53.110Z,0.50
2022-08-10T00:30:04.596Z,0.50
2022-08-10T00:32:36.539Z,0.30
2022-08-10T00:35:08.392Z,0.40
2022-08-10T00:37:40.209Z,0.53
2022-08-10T00:40:12.154Z,0.50
2022-08-10T00:42:44.072Z,0.67
2022-08-10T00:45:15.915Z,0.30
2022-08-10T00:47:47.800Z,0.50
2022-08-10T00:50:19.709Z,1.00
2022-08-10T00:52:51.561Z,0.50
2022-08-10T00:55:23.455Z,0.77
2022-08-10T00:57:55.830Z,0.60
2022-08-10T01:00:27.855Z,0.40
2022-08-10T01:03:00.006Z,0.50
2022-08-10T01:05:31.993Z,0.40
2022-08-10T01:08:03.849Z,0.60
2022-08-10T01:10:35.747Z,0.40
2022-08-10T01:13:07.599Z,0.50
2022-08-10T01:15:39.509Z,0.60
2022-08-10T01:18:11.353Z,0.60
2022-08-10T01:20:43.493Z,0.40
2022-08-10T01:23:15.395Z,0.37
2022-08-10T01:26:11.676Z,0.60
2022-08-10T01:28:22.611Z,0.40
2022-08-10T01:30:54.451Z,0.60
2022-08-10T01:33:31.672Z,0.40
2022-08-10T01:36:01.552Z,0.40
2022-08-10T01:38:34.567Z,0.50
2022-08-10T01:41:06.417Z,0.60
2022-08-10T01:43:38.361Z,0.70
2022-08-10T01:46:10.214Z,0.50
2022-08-10T01:48:42.155Z,0.60
2022-08-10T01:51:13.995Z,0.60
2022-08-10T01:53:45.864Z,0.47
2022-08-10T01:56:17.795Z,0.37
2022-08-10T01:58:49.653Z,0.40
2022-08-10T02:01:21.564Z,0.50
2022-08-10T02:04:03.649Z,0.70
2022-08-10T02:06:26.882Z,0.60
2022-08-10T02:09:06.304Z,0.50
2022-08-10T02:12:05.762Z,0.43
2022-08-10T02:14:05.695Z,0.50
2022-08-10T02:16:37.573Z,0.50
2022-08-10T02:19:09.408Z,0.50
2022-08-10T02:22:34.923Z,0.70
2022-08-10T02:24:16.465Z,0.40
2022-08-10T02:26:48.284Z,0.50
2022-08-10T02:29:21.785Z,1.13
2022-08-10T02:31:53.624Z,0.60
2022-08-10T02:34:26.275Z,0.50
2022-08-10T02:36:58.098Z,1.00
2022-08-10T02:39:30.002Z,0.60
2022-08-10T02:45:03.058Z,0.90
2022-08-10T02:45:19.059Z,0.80
2022-08-10T02:47:08.756Z,1.13
2022-08-10T02:49:40.585Z,0.60
2022-08-10T02:52:12.546Z,0.60
2022-08-10T02:54:44.420Z,0.80
2022-08-10T02:57:16.259Z,0.60
2022-08-10T02:59:48.149Z,0.60
2022-08-10T03:02:20.017Z,0.80
2022-08-10T03:04:55.417Z,0.80
2022-08-10T03:07:43.230Z,0.90
2022-08-10T03:09:58.734Z,0.60
2022-08-10T03:12:37.085Z,0.70
2022-08-10T03:15:04.105Z,0.70
2022-08-10T03:17:35.974Z,1.03
2022-08-10T03:20:38.400Z,0.73
2022-08-10T03:22:41.336Z,1.73
2022-08-10T03:25:13.177Z,0.80
2022-08-10T03:27:45.166Z,1.03
2022-08-10T03:30:23.328Z,0.90
2022-08-10T03:32:50.434Z,0.80
2022-08-10T03:35:23.878Z,0.60
2022-08-10T03:37:59.507Z,0.83
2022-08-10T03:40:32.293Z,0.90
2022-08-10T03:43:02.778Z,0.70
2022-08-10T03:45:54.210Z,1.20
2022-08-10T03:48:08.080Z,0.70
2022-08-10T03:50:51.323Z,1.20
2022-08-10T03:53:25.317Z,1.10
2022-08-10T03:56:26.809Z,1.20
2022-08-10T03:58:20.432Z,0.97
2022-08-10T04:00:52.301Z,0.80
2022-08-10T04:03:24.348Z,1.20
2022-08-10T04:05:57.810Z,1.30
2022-08-10T04:08:29.692Z,1.00
2022-08-10T04:11:01.497Z,1.50
2022-08-10T04:13:33.305Z,1.10
2022-08-10T04:16:07.542Z,0.90
2022-08-10T04:18:38.661Z,1.50
2022-08-10T04:21:10.543Z,1.30
2022-08-10T04:23:42.407Z,1.20
2022-08-10T04:26:14.267Z,1.23
2022-08-10T04:28:46.240Z,1.17
2022-08-10T04:31:18.062Z,1.20
2022-08-10T04:33:49.879Z,1.20
2022-08-10T04:36:21.713Z,1.33
2022-08-10T04:38:53.626Z,1.37
2022-08-10T04:41:25.429Z,1.50
2022-08-10T04:43:57.265Z,1.57
2022-08-10T04:46:55.499Z,1.50
2022-08-10T04:49:02.551Z,1.43
2022-08-10T04:51:36.001Z,1.70
2022-08-10T04:54:08.248Z,1.40
2022-08-10T04:56:40.370Z,1.60
2022-08-10T04:59:12.211Z,1.57
2022-08-10T05:02:29.567Z,1.67
2022-08-10T05:04:33.931Z,1.63
2022-08-10T05:06:50.962Z,1.80
2022-08-10T05:09:22.783Z,1.50
2022-08-10T05:11:54.701Z,1.90
2022-08-10T05:14:26.521Z,1.67
2022-08-10T05:16:58.333Z,1.70
2022-08-10T05:20:03.915Z,1.40
2022-08-10T05:22:05.033Z,1.50
2022-08-10T05:24:37.085Z,1.70
2022-08-10T05:27:10.487Z,1.90
2022-08-10T05:29:42.595Z,1.70
2022-08-10T05:32:14.423Z,1.80
2022-08-10T05:34:46.282Z,1.50
2022-08-10T05:38:10.740Z,1.77
2022-08-10T05:39:51.675Z,1.70
2022-08-10T05:42:23.650Z,1.70
2022-08-10T05:44:55.537Z,2.00
2022-08-10T05:47:27.444Z,1.90
2022-08-10T05:50:01.052Z,1.87
2022-08-10T05:52:32.967Z,1.80
2022-08-10T05:55:04.826Z,1.87
2022-08-10T05:57:36.649Z,1.87
2022-08-10T06:00:30.880Z,1.97
2022-08-10T06:02:44.744Z,2.07
2022-08-10T06:05:16.782Z,2.10
2022-08-10T06:07:48.611Z,1.73
2022-08-10T06:10:31.202Z,2.10
2022-08-10T06:12:56.591Z,2.07
2022-08-10T06:15:51.617Z,3.07
2022-08-10T06:18:02.069Z,1.70
2022-08-10T06:20:36.234Z,1.50
2022-08-10T06:23:07.717Z,1.87
2022-08-10T06:26:11.714Z,1.67
2022-08-10T06:28:13.101Z,1.63
2022-08-10T06:30:44.927Z,2.53
2022-08-10T06:33:16.737Z,1.70
2022-08-10T06:35:48.575Z,1.63
2022-08-10T06:38:20.378Z,1.33
2022-08-10T06:40:52.349Z,1.53
2022-08-10T06:43:24.193Z,2.13
2022-08-10T06:46:06.902Z,1.80
2022-08-10T06:48:31.239Z,1.40
2022-08-10T06:51:03.094Z,1.20
2022-08-10T06:53:52.251Z,1.20
2022-08-10T06:56:08.397Z,1.37
2022-08-10T06:58:40.217Z,1.20
2022-08-10T07:01:12.429Z,1.20
2022-08-10T07:03:46.117Z,1.30
2022-08-10T07:06:17.948Z,1.03
2022-08-10T07:08:49.797Z,1.20
2022-08-10T07:11:21.607Z,1.27
2022-08-10T07:14:15.458Z,1.10
2022-08-10T07:16:26.962Z,1.00
2022-08-10T07:19:00.273Z,1.20
2022-08-10T07:21:32.106Z,1.10
2022-08-10T07:24:04.366Z,1.47
2022-08-10T07:26:36.475Z,1.00
2022-08-10T07:29:08.410Z,1.00
2022-08-10T07:31:55.574Z,1.00
2022-08-10T07:34:29.460Z,1.10
2022-08-10T07:36:49.065Z,0.87
2022-08-10T07:40:02.189Z,1.10
2022-08-10T07:41:54.305Z,0.90
2022-08-10T07:44:26.124Z,0.80
2022-08-10T07:46:58.075Z,1.10
2022-08-10T07:49:29.933Z,0.77
2022-08-10T07:52:01.815Z,0.70
2022-08-10T07:54:33.644Z,0.90
2022-08-10T07:57:05.588Z,0.87
2022-08-10T07:59:37.435Z,0.80
2022-08-10T08:02:09.400Z,0.80
2022-08-10T08:04:41.379Z,0.93
2022-08-10T08:07:13.873Z,0.73
2022-08-10T08:09:58.095Z,1.10
2022-08-10T08:12:21.332Z,0.70
2022-08-10T08:14:53.162Z,0.90
2022-08-10T08:17:25.001Z,1.10
2022-08-10T08:19:58.448Z,0.87
2022-08-10T08:24:10.074Z,0.97
2022-08-10T08:25:03.908Z,1.03
2022-08-10T08:27:35.839Z,0.80
2022-08-10T08:30:07.778Z,0.90
2022-08-10T08:32:39.790Z,0.80
2022-08-10T08:35:11.824Z,0.73
2022-08-10T08:38:32.555Z,0.83
2022-08-10T08:40:17.536Z,0.50
2022-08-10T08:42:52.406Z,0.77
2022-08-10T08:45:24.316Z,0.80
2022-08-10T08:48:03.217Z,1.00
2022-08-10T08:50:29.641Z,1.13
2022-08-10T08:53:01.767Z,0.90
2022-08-10T08:56:04.993Z,1.00
2022-08-10T08:58:08.261Z,0.80
2022-08-10T09:00:40.703Z,0.60
2022-08-10T09:03:12.635Z,0.73
2022-08-10T09:05:58.512Z,0.70
2022-08-10T09:08:17.947Z,0.80
2022-08-10T09:10:50.187Z,0.80
2022-08-10T09:13:22.150Z,0.90
2022-08-10T09:15:57.425Z,0.80
2022-08-10T09:18:28.235Z,0.60
2022-08-10T09:21:00.126Z,0.80
2022-08-10T09:24:01.809Z,0.80
2022-08-10T09:26:05.797Z,1.00
2022-08-10T09:28:37.764Z,0.60
2022-08-10T09:31:26.091Z,0.60
2022-08-10T09:36:27.000Z,0.90
2022-08-10T09:36:33.346Z,0.70
2022-08-10T09:38:51.038Z,0.60
2022-08-10T09:41:22.937Z,1.00
2022-08-10T09:43:55.377Z,0.80
2022-08-10T09:46:27.769Z,0.60
2022-08-10T09:48:59.994Z,0.93
2022-08-10T09:51:47.806Z,0.60
2022-08-10T09:54:05.274Z,0.77
2022-08-10T09:56:37.297Z,0.60
2022-08-10T09:59:26.670Z,0.80
2022-08-10T10:02:02.868Z,0.80
2022-08-10T10:04:16.160Z,0.70
2022-08-10T10:06:48.136Z,0.73
2022-08-10T10:09:19.965Z,0.73
2022-08-10T10:11:53.527Z,0.50
2022-08-10T10:14:25.376Z,0.90
2022-08-10T10:16:57.381Z,0.73
2022-08-10T10:19:29.893Z,0.60
2022-08-10T10:22:01.895Z,0.47
2022-08-10T10:24:33.830Z,0.60
2022-08-10T10:27:05.629Z,0.77
2022-08-10T10:29:56.290Z,0.80
2022-08-10T10:32:13.726Z,0.60
2022-08-10T10:34:46.025Z,0.70
2022-08-10T10:37:18.111Z,0.70
2022-08-10T10:39:49.985Z,0.50
2022-08-10T10:42:44.249Z,0.70
2022-08-10T10:44:55.400Z,0.50
2022-08-10T10:47:27.351Z,0.60
2022-08-10T10:49:59.234Z,0.50
2022-08-10T10:52:31.176Z,0.70
2022-08-10T10:55:03.033Z,0.50
2022-08-10T10:57:59.768Z,0.60
2022-08-10T11:00:08.280Z,0.40
2022-08-10T11:02:40.088Z,0.40
2022-08-10T11:05:11.908Z,0.50
2022-08-10T11:07:48.871Z,0.50
2022-08-10T11:10:32.463Z,0.73
2022-08-10T11:12:51.895Z,0.80
2022-08-10T11:15:23.749Z,0.40
2022-08-10T11:17:55.579Z,0.40
2022-08-10T11:20:27.401Z,0.60
2022-08-10T11:22:59.260Z,0.63
2022-08-10T11:25:31.646Z,0.80
2022-08-10T11:28:04.053Z,0.70
2022-08-10T11:30:35.881Z,0.60
2022-08-10T11:33:07.673Z,0.90
2022-08-10T11:35:39.532Z,0.60
2022-08-10T11:38:31.397Z,0.70
2022-08-10T11:40:44.811Z,0.70
2022-08-10T11:43:17.285Z,0.80
2022-08-10T11:45:52.054Z,0.60
2022-08-10T11:48:54.326Z,0.40
2022-08-10T11:50:58.858Z,0.80
2022-08-10T11:53:38.811Z,0.98
2022-08-10T11:56:11.046Z,0.90
2022-08-10T11:58:37.621Z,0.55
2022-08-10T12:01:09.478Z,0.50
2022-08-10T12:03:41.859Z,0.60
2022-08-10T12:06:14.237Z,0.50
2022-08-10T12:10:06.816Z,0.40
2022-08-10T12:11:24.051Z,0.70
2022-08-10T12:14:17.958Z,0.72
2022-08-10T12:16:27.226Z,0.50
2022-08-10T12:18:59.064Z,0.40
2022-08-10T12:21:30.900Z,0.60
2022-08-10T12:24:03.557Z,0.70
2022-08-10T12:26:36.251Z,0.40
2022-08-10T12:29:08.110Z,0.50
2022-08-10T12:31:39.933Z,0.40
2022-08-10T12:34:12.343Z,0.62
2022-08-10T12:36:44.746Z,0.50
2022-08-10T12:39:16.657Z,0.50
2022-08-10T12:41:48.576Z,0.40
2022-08-10T12:44:20.425Z,0.30
2022-08-10T12:46:52.824Z,0.50
2022-08-10T12:49:25.270Z,0.30
2022-08-10T12:51:57.686Z,0.72
2022-08-10T12:54:32.228Z,0.60
2022-08-10T12:57:04.439Z,1.12
2022-08-10T12:59:43.095Z,0.72
2022-08-10T13:02:11.204Z,0.50
2022-08-10T13:04:43.851Z,0.42
2022-08-10T13:08:25.844Z,0.40
2022-08-10T13:09:56.218Z,0.60
2022-08-10T13:12:38.215Z,0.50
2022-08-10T13:14:58.436Z,0.30
2022-08-10T13:17:39.721Z,0.50
2022-08-10T13:20:12.952Z,0.47
2022-08-10T13:22:38.933Z,0.40
2022-08-10T13:25:11.467Z,0.40
2022-08-10T13:28:00.416Z,0.50
2022-08-10T13:30:17.935Z,0.53
2022-08-10T13:32:52.167Z,0.55
2022-08-10T13:35:24.805Z,0.40
2022-08-10T13:37:57.181Z,0.45
2022-08-10T13:40:29.810Z,0.60
2022-08-10T13:43:02.233Z,0.60
2022-08-10T13:45:34.681Z,0.60
2022-08-10T13:48:07.068Z,0.40
2022-08-10T13:50:39.514Z,0.70
2022-08-10T13:53:15.809Z,1.00
2022-08-10T13:55:54.003Z,0.50
2022-08-10T13:58:20.003Z,0.50
2022-08-10T14:00:52.445Z,0.50
2022-08-10T14:03:24.878Z,0.50
2022-08-10T14:05:57.329Z,0.50
2022-08-10T14:08:29.727Z,0.62
2022-08-10T14:11:11.696Z,0.50
2022-08-10T14:13:36.297Z,0.40
2022-08-10T14:16:08.807Z,0.95
2022-08-10T14:18:41.192Z,0.30
2022-08-10T14:21:13.613Z,0.55
2022-08-10T14:23:52.033Z,0.50
2022-08-10T14:26:20.061Z,0.70
2022-08-10T14:28:52.531Z,0.60
2022-08-10T14:31:25.327Z,0.60
2022-08-10T14:33:57.753Z,0.75
2022-08-10T14:36:30.171Z,0.60
2022-08-10T14:39:02.093Z,0.80
2022-08-10T14:42:02.917Z,0.50
2022-08-10T14:44:07.928Z,0.50
2022-08-10T14:46:39.798Z,0.60
2022-08-10T14:49:25.584Z,0.88
2022-08-10T14:51:45.507Z,0.50
2022-08-10T14:54:17.945Z,0.60
2022-08-10T14:56:50.354Z,0.50
2022-08-10T14:59:22.248Z,0.53
2022-08-10T15:02:00.668Z,0.70
2022-08-10T15:04:28.536Z,0.60
2022-08-10T15:07:02.404Z,0.60
2022-08-10T15:10:01.911Z,0.55
2022-08-10T15:12:14.079Z,0.57
2022-08-10T15:14:45.168Z,0.60
2022-08-10T15:17:17.620Z,0.60
2022-08-10T15:20:04.111Z,0.60
2022-08-10T15:22:37.044Z,0.50
2022-08-10T15:24:59.272Z,0.50
2022-08-10T15:27:31.180Z,0.50
2022-08-10T15:30:04.652Z,0.70
2022-08-10T15:32:37.060Z,0.68
2022-08-10T15:35:09.146Z,0.70
2022-08-10T15:37:41.572Z,1.00
2022-08-10T15:40:21.969Z,0.60
2022-08-10T15:42:49.181Z,0.40
2022-08-10T15:45:21.855Z,0.70
2022-08-10T15:48:00.558Z,0.57
2022-08-10T15:50:27.832Z,0.40
2022-08-10T15:53:02.634Z,1.10
2022-08-10T15:55:43.647Z,0.60
2022-08-10T15:58:07.223Z,0.50
2022-08-10T16:00:39.609Z,0.47
2022-08-10T16:03:13.067Z,0.57
2022-08-10T16:06:01.564Z,0.53
2022-08-10T16:08:21.059Z,0.57
2022-08-10T16:10:53.824Z,0.60
2022-08-10T16:14:00.898Z,0.50
2022-08-10T16:15:59.189Z,0.60
2022-08-10T16:18:31.871Z,0.50
2022-08-10T16:21:03.991Z,0.70
2022-08-10T16:23:36.426Z,0.68
2022-08-10T16:26:14.556Z,0.30
2022-08-10T16:28:42.321Z,0.40
2022-08-10T16:31:14.922Z,0.60
2022-08-10T16:33:53.561Z,0.50
2022-08-10T16:36:20.805Z,0.50
2022-08-10T16:38:52.617Z,1.02
2022-08-10T16:42:05.275Z,0.57
2022-08-10T16:43:58.504Z,0.65
2022-08-10T16:46:30.355Z,0.68
2022-08-10T16:49:02.177Z,0.70
2022-08-10T16:51:34.054Z,0.60
2022-08-10T16:54:05.866Z,0.70
2022-08-10T16:56:49.412Z,0.40
2022-08-10T16:59:17.762Z,0.47
2022-08-10T17:01:45.304Z,0.50
2022-08-10T17:04:18.838Z,0.40
2022-08-10T17:06:55.372Z,0.50
2022-08-10T17:09:25.267Z,0.40
2022-08-10T17:11:57.677Z,0.60
2022-08-10T17:14:30.082Z,0.55
2022-08-10T17:17:02.454Z,0.60
2022-08-10T17:19:34.855Z,0.50
2022-08-10T17:22:07.233Z,0.80
2022-08-10T17:24:39.705Z,0.70
2022-08-10T17:28:05.594Z,0.57
2022-08-10T17:29:58.278Z,0.60
2022-08-10T17:32:19.714Z,0.68
2022-08-10T17:34:52.316Z,1.37
2022-08-10T17:37:24.464Z,0.78
2022-08-10T17:39:56.671Z,0.70
2022-08-10T17:42:30.539Z,0.55
2022-08-10T17:45:03.118Z,0.47
2022-08-10T17:47:35.047Z,0.50
2022-08-10T17:50:06.997Z,0.80
2022-08-10T17:52:39.354Z,0.80
2022-08-10T17:55:11.230Z,0.53
2022-08-10T17:57:43.687Z,0.47
2022-08-10T18:00:15.549Z,0.40
2022-08-10T18:02:48.051Z,0.82
2022-08-10T18:05:20.795Z,0.70
2022-08-10T18:07:53.040Z,1.07
2022-08-10T18:10:25.074Z,0.50
2022-08-10T18:12:56.941Z,0.70
2022-08-10T18:15:28.791Z,0.50
2022-08-10T18:18:00.646Z,0.73
2022-08-10T18:20:32.532Z,0.50
2022-08-10T18:23:04.460Z,0.63
2022-08-10T18:25:36.301Z,0.60
2022-08-10T18:28:08.942Z,0.57
2022-08-10T18:30:45.115Z,0.70
2022-08-10T18:33:15.183Z,0.70
2022-08-10T18:35:47.062Z,0.60
2022-08-10T18:38:19.012Z,0.60
2022-08-10T18:40:50.834Z,0.60
2022-08-10T18:44:06.808Z,1.10
2022-08-10T18:45:56.261Z,0.70
2022-08-10T18:48:29.040Z,0.63
2022-08-10T18:51:05.406Z,0.60
2022-08-10T18:53:34.496Z,0.70
2022-08-10T18:56:09.165Z,0.57
2022-08-10T18:58:39.841Z,0.60
2022-08-10T19:01:11.711Z,0.77
2022-08-10T19:03:53.628Z,0.70
2022-08-10T19:06:17.158Z,0.93
2022-08-10T19:08:50.071Z,0.53
2022-08-10T19:11:22.370Z,0.80
2022-08-10T19:13:54.212Z,0.70
2022-08-10T19:16:26.294Z,0.67
2022-08-10T19:18:58.191Z,0.67
2022-08-10T19:21:30.060Z,0.83
2022-08-10T19:24:01.887Z,1.00
2022-08-10T19:26:43.969Z,0.80
2022-08-10T19:29:07.250Z,0.63
2022-08-10T19:31:44.561Z,0.60
2022-08-10T19:34:12.632Z,0.70
2022-08-10T19:36:44.432Z,0.73
2022-08-10T19:39:17.793Z,0.80
2022-08-10T19:41:54.202Z,0.80
2022-08-10T19:44:23.333Z,0.57
2022-08-10T19:46:55.185Z,0.97
2022-08-10T19:49:27.077Z,0.63
2022-08-10T19:51:58.904Z,0.60
2022-08-10T19:54:32.418Z,0.60
2022-08-10T19:57:04.293Z,0.60
2022-08-10T20:00:17.316Z,0.70
2022-08-10T20:02:09.684Z,0.80
2022-08-10T20:04:41.514Z,0.77
2022-08-10T20:07:13.453Z,0.70
2022-08-10T20:09:45.293Z,0.80
2022-08-10T20:12:17.123Z,0.70
2022-08-10T20:14:49.018Z,0.53
2022-08-10T20:17:20.881Z,0.73
2022-08-10T20:19:54.878Z,0.97
2022-08-10T20:22:29.402Z,0.70
2022-08-10T20:24:59.771Z,0.87
2022-08-10T20:27:59.498Z,0.83
2022-08-10T20:30:06.766Z,1.20
2022-08-10T20:32:38.823Z,2.13
2022-08-10T20:35:11.712Z,0.80
2022-08-10T20:38:02.833Z,1.00
2022-08-10T20:40:17.053Z,0.93
2022-08-10T20:42:48.953Z,0.73
2022-08-10T20:45:21.853Z,0.60
2022-08-10T20:47:54.860Z,0.70
2022-08-10T20:50:27.030Z,0.60
2022-08-10T20:52:58.911Z,0.70
2022-08-10T20:55:31.713Z,0.70
2022-08-10T20:58:05.289Z,0.80
2022-08-10T21:00:37.239Z,0.97
2022-08-10T21:03:15.884Z,1.30
2022-08-10T21:05:44.302Z,0.60
2022-08-10T21:08:16.116Z,0.77
2022-08-10T21:10:47.987Z,0.80
2022-08-10T21:13:19.848Z,0.90
2022-08-10T21:15:51.702Z,0.90
2022-08-10T21:18:25.169Z,1.10
2022-08-10T21:23:31.047Z,0.87
2022-08-10T21:25:42.223Z,0.93
2022-08-10T21:26:03.097Z,0.90
2022-08-10T21:28:35.049Z,0.90
2022-08-10T21:31:06.889Z,0.70
2022-08-10T21:33:39.438Z,0.80
2022-08-10T21:36:11.285Z,0.80
2022-08-10T21:38:44.714Z,0.83
2022-08-10T21:41:19.418Z,0.60
2022-08-10T21:43:51.006Z,0.90
2022-08-10T21:46:22.854Z,0.70
2022-08-10T21:48:57.598Z,0.63
2022-08-10T21:52:01.966Z,0.63
2022-08-10T21:54:03.364Z,0.90
2022-08-10T21:56:35.224Z,0.77
2022-08-10T21:59:07.048Z,0.70
2022-08-10T22:01:40.186Z,0.80
2022-08-10T22:04:12.223Z,1.20
2022-08-10T22:06:52.750Z,1.00
2022-08-10T22:09:19.190Z,2.00
2022-08-10T22:11:51.070Z,0.90
2022-08-10T22:14:25.513Z,0.90
2022-08-10T22:16:58.402Z,0.80
2022-08-10T22:19:31.859Z,1.67
2022-08-10T22:22:04.379Z,0.80
2022-08-10T22:24:36.526Z,0.90
2022-08-10T22:27:09.994Z,0.70
2022-08-10T22:29:43.529Z,0.90
2022-08-10T22:32:15.416Z,0.87
2022-08-10T22:34:47.248Z,0.73
2022-08-10T22:37:19.085Z,0.80
2022-08-10T22:40:11.512Z,0.90
2022-08-10T22:42:24.476Z,0.80
2022-08-10T22:44:56.334Z,1.03
2022-08-10T22:47:28.189Z,0.70
2022-08-10T22:50:07.335Z,0.70
2022-08-10T22:52:57.132Z,1.07
2022-08-10T22:55:06.988Z,1.00
2022-08-10T22:57:38.856Z,0.80
2022-08-10T23:00:10.685Z,0.70
2022-08-10T23:02:42.648Z,0.90
2022-08-10T23:05:14.587Z,0.90
2022-08-10T23:07:46.438Z,1.10
2022-08-10T23:10:18.257Z,0.80
2022-08-10T23:12:50.133Z,1.30
2022-08-10T23:15:21.953Z,1.07
2022-08-10T23:18:01.956Z,1.00
2022-08-10T23:20:27.407Z,0.70
2022-08-10T23:22:59.339Z,0.97
2022-08-10T23:25:32.916Z,1.00
2022-08-10T23:28:12.344Z,0.80
2022-08-10T23:30:38.271Z,0.93
2022-08-10T23:33:11.782Z,0.87
2022-08-10T23:36:30.368Z,1.20
2022-08-10T23:38:17.063Z,0.87
2022-08-10T23:40:48.917Z,1.13
2022-08-10T23:43:20.738Z,1.00
2022-08-10T23:45:54.397Z,0.90
2022-08-10T23:48:26.052Z,1.03
2022-08-10T23:50:59.505Z,0.90
2022-08-10T23:53:31.336Z,0.80
2022-08-10T23:56:03.185Z,0.90
2022-08-10T23:58:35.110Z,0.83
